createdAt,value
2022-11-29T00:00:57.866Z,10.07
2022-11-29T00:03:25.450Z,11.03
2022-11-29T00:05:53.751Z,11.47
2022-11-29T00:08:21.275Z,12.70
2022-11-29T00:10:48.812Z,12.77
2022-11-29T00:13:16.364Z,10.33
2022-11-29T00:15:44.697Z,15.07
2022-11-29T00:18:12.234Z,15.63
2022-11-29T00:20:40.101Z,13.97
2022-11-29T00:23:07.647Z,11.43
2022-11-29T00:25:35.161Z,10.67
2022-11-29T00:28:02.775Z,10.63
2022-11-29T00:30:30.299Z,12.23
2022-11-29T00:32:57.814Z,11.00
2022-11-29T00:35:25.381Z,11.07
2022-11-29T00:37:52.914Z,11.33
2022-11-29T00:40:20.441Z,14.23
2022-11-29T00:42:47.993Z,10.67
2022-11-29T00:45:16.309Z,14.27
2022-11-29T00:47:43.861Z,12.03
2022-11-29T00:50:11.564Z,11.20
2022-11-29T00:52:39.086Z,13.40
2022-11-29T00:55:06.729Z,14.25
2022-11-29T00:57:34.274Z,11.23
2022-11-29T01:00:01.801Z,11.20
2022-11-29T01:02:29.380Z,10.47
2022-11-29T01:04:56.881Z,13.10
2022-11-29T01:07:24.435Z,11.33
2022-11-29T01:09:51.938Z,13.33
2022-11-29T01:12:19.513Z,12.17
2022-11-29T01:14:47.857Z,11.87
2022-11-29T01:17:15.350Z,10.53
2022-11-29T01:19:49.343Z,12.17
2022-11-29T01:22:11.208Z,12.00
2022-11-29T01:24:38.732Z,12.63
2022-11-29T01:27:06.287Z,10.73
2022-11-29T01:29:33.821Z,11.27
2022-11-29T01:32:01.348Z,10.57
2022-11-29T01:34:28.911Z,14.90
2022-11-29T01:36:56.436Z,14.30
2022-11-29T01:39:24.739Z,11.63
2022-11-29T01:41:52.303Z,10.53
2022-11-29T01:44:19.828Z,10.67
2022-11-29T01:46:48.120Z,12.97
2022-11-29T01:49:19.203Z,11.73
2022-11-29T01:51:46.734Z,10.77
2022-11-29T01:54:14.260Z,14.97
2022-11-29T01:56:42.614Z,14.83
2022-11-29T01:59:10.152Z,18.03
2022-11-29T02:01:37.742Z,19.40
2022-11-29T02:04:05.246Z,15.60
2022-11-29T02:06:32.858Z,13.10
2022-11-29T02:09:00.397Z,14.03
2022-11-29T02:11:33.394Z,23.92
2022-11-29T02:14:31.825Z,19.20
2022-11-29T02:16:59.429Z,16.42
2022-11-29T02:19:48.290Z,12.43
2022-11-29T02:22:30.781Z,13.67
2022-11-29T02:25:07.276Z,12.30
2022-11-29T02:27:40.473Z,12.57
2022-11-29T02:55:09.144Z,10.33
2022-11-29T02:57:46.463Z,9.73
2022-11-29T03:00:14.176Z,10.93
2022-11-29T03:02:56.783Z,9.53
2022-11-29T03:05:40.203Z,12.57
2022-11-29T03:08:28.858Z,11.90
2022-11-29T03:11:00.377Z,13.80
2022-11-29T03:13:36.833Z,13.88
2022-11-29T03:16:04.444Z,10.80
2022-11-29T03:18:34.602Z,9.97
2022-11-29T03:21:21.218Z,10.80
2022-11-29T03:23:48.781Z,8.87
2022-11-29T03:26:22.109Z,13.87
2022-11-29T03:28:55.925Z,40.00
2022-11-29T03:48:28.070Z,13.02
2022-11-29T03:50:55.624Z,13.50
2022-11-29T03:53:28.919Z,12.53
2022-11-29T03:55:59.330Z,12.73
2022-11-29T03:58:47.640Z,10.77
2022-11-29T04:01:20.975Z,13.00
2022-11-29T04:03:54.250Z,11.63
2022-11-29T04:06:40.726Z,12.27
2022-11-29T04:09:20.287Z,11.20
2022-11-29T04:12:00.599Z,12.17
2022-11-29T04:14:30.802Z,13.27
2022-11-29T04:17:32.355Z,14.53
2022-11-29T04:20:32.883Z,13.60
2022-11-29T04:23:18.467Z,11.70
2022-11-29T04:26:10.027Z,14.38
2022-11-29T04:28:58.800Z,13.77
2022-11-29T04:31:50.635Z,11.97
2022-11-29T04:34:20.887Z,16.20
2022-11-29T04:37:18.689Z,14.37
2022-11-29T04:39:55.184Z,12.87
2022-11-29T04:42:40.569Z,15.77
2022-11-29T04:45:19.624Z,14.60
2022-11-29T04:47:56.749Z,14.60
2022-11-29T04:50:48.426Z,13.13
2022-11-29T04:53:25.573Z,16.80
2022-11-29T04:56:20.961Z,15.97
2022-11-29T05:16:12.746Z,15.73
2022-11-29T05:18:49.420Z,20.67
2022-11-29T05:21:42.388Z,22.90
2022-11-29T05:24:32.903Z,20.33
2022-11-29T05:27:18.851Z,20.77
2022-11-29T05:29:49.182Z,20.37
2022-11-29T05:32:44.246Z,19.70
2022-11-29T05:35:20.504Z,22.67
2022-11-29T05:37:53.317Z,24.30
2022-11-29T05:40:39.215Z,20.10
2022-11-29T05:43:12.472Z,25.45
2022-11-29T05:45:42.783Z,20.70
2022-11-29T05:48:22.171Z,20.73
2022-11-29T05:51:07.971Z,22.03
2022-11-29T05:53:36.268Z,22.33
2022-11-29T05:56:06.645Z,22.27
2022-11-29T05:58:48.967Z,21.30
2022-11-29T06:01:22.447Z,17.93
2022-11-29T06:04:13.324Z,24.77
2022-11-29T06:06:38.805Z,22.33
2022-11-29T06:09:06.331Z,22.92
2022-11-29T06:11:34.252Z,22.93
2022-11-29T06:14:07.436Z,23.17
2022-11-29T06:17:05.662Z,19.43
2022-11-29T06:19:51.078Z,27.87
2022-11-29T06:22:43.534Z,29.47
2022-11-29T06:25:13.529Z,22.40
2022-11-29T06:28:02.757Z,21.20
2022-11-29T06:30:33.026Z,32.13
2022-11-29T06:33:06.420Z,33.75
2022-11-29T06:35:53.676Z,39.43
2022-11-29T06:38:24.165Z,43.57
2022-11-29T06:40:54.944Z,32.90
2022-11-29T06:43:20.121Z,25.40
2022-11-29T06:45:47.644Z,23.33
2022-11-29T06:48:15.170Z,22.80
2022-11-29T06:50:48.668Z,20.90
2022-11-29T06:53:34.973Z,22.87
2022-11-29T06:56:02.911Z,28.12
2022-11-29T06:58:45.432Z,21.90
2022-11-29T07:01:31.222Z,18.70
2022-11-29T07:03:59.475Z,18.70
2022-11-29T07:06:27.078Z,15.07
2022-11-29T07:08:54.654Z,19.17
2022-11-29T07:11:22.207Z,18.13
2022-11-29T07:13:49.732Z,18.83
2022-11-29T07:16:32.288Z,19.40
2022-11-29T07:19:20.761Z,15.53
2022-11-29T07:22:06.253Z,13.67
2022-11-29T07:24:42.683Z,14.03
2022-11-29T07:27:28.616Z,13.13
2022-11-29T07:30:05.112Z,16.00
2022-11-29T07:32:53.688Z,11.20
2022-11-29T07:35:18.149Z,9.80
2022-11-29T07:37:57.533Z,13.38
2022-11-29T07:40:44.460Z,13.67
2022-11-29T07:43:39.191Z,10.80
2022-11-29T07:46:06.726Z,9.57
2022-11-29T07:48:34.270Z,8.70
2022-11-29T07:51:02.608Z,13.00
2022-11-29T07:53:30.128Z,14.60
2022-11-29T07:55:57.669Z,14.17
2022-11-29T07:58:26.313Z,13.20
2022-11-29T08:00:53.859Z,13.30
2022-11-29T08:03:22.097Z,12.53
2022-11-29T08:05:49.662Z,9.07
2022-11-29T08:08:17.187Z,10.33
2022-11-29T08:10:45.489Z,13.80
2022-11-29T08:13:13.054Z,13.00
2022-11-29T08:15:46.289Z,13.37
2022-11-29T08:18:13.838Z,9.17
2022-11-29T08:20:41.479Z,12.57
2022-11-29T08:23:09.002Z,9.77
2022-11-29T08:25:37.305Z,11.47
2022-11-29T08:28:05.471Z,11.70
2022-11-29T08:30:33.009Z,15.40
2022-11-29T08:33:01.317Z,12.30
2022-11-29T08:35:28.962Z,13.37
2022-11-29T08:37:56.488Z,10.97
2022-11-29T08:40:24.132Z,12.90
2022-11-29T08:42:51.593Z,12.60
2022-11-29T08:45:19.129Z,11.17
2022-11-29T08:47:46.655Z,12.45
2022-11-29T08:50:14.237Z,13.07
2022-11-29T08:52:59.859Z,12.77
2022-11-29T08:55:27.773Z,11.23
2022-11-29T08:57:55.294Z,10.53
2022-11-29T09:00:23.623Z,10.17
2022-11-29T09:02:51.939Z,12.00
2022-11-29T09:05:19.454Z,12.73
2022-11-29T09:07:47.846Z,14.87
2022-11-29T09:10:15.354Z,12.83
2022-11-29T09:12:43.643Z,13.52
2022-11-29T09:15:11.209Z,12.23
2022-11-29T09:17:38.732Z,12.40
2022-11-29T09:20:06.454Z,15.10
2022-11-29T09:22:33.990Z,12.90
2022-11-29T09:25:01.562Z,12.17
2022-11-29T09:27:29.099Z,10.87
2022-11-29T09:29:57.400Z,11.43
2022-11-29T09:32:24.974Z,10.47
2022-11-29T09:34:52.509Z,14.10
2022-11-29T09:37:20.033Z,12.30
2022-11-29T09:39:48.375Z,14.67
2022-11-29T09:42:18.347Z,15.23
2022-11-29T09:44:51.785Z,16.23
2022-11-29T09:47:31.273Z,15.43
2022-11-29T09:50:23.858Z,16.90
2022-11-29T09:52:51.401Z,15.33
2022-11-29T09:55:21.652Z,20.10
2022-11-29T09:57:49.217Z,11.03
2022-11-29T10:00:19.309Z,12.70
2022-11-29T10:02:46.804Z,14.00
2022-11-29T10:05:23.942Z,16.63
2022-11-29T10:07:57.707Z,17.13
2022-11-29T10:10:40.360Z,11.53
2022-11-29T10:13:19.367Z,14.67
2022-11-29T10:15:47.715Z,14.90
2022-11-29T10:18:21.177Z,11.50
2022-11-29T10:20:49.315Z,11.85
2022-11-29T10:23:16.361Z,15.80
2022-11-29T10:25:47.642Z,15.85
2022-11-29T10:28:15.175Z,11.40
2022-11-29T10:30:42.800Z,10.70
2022-11-29T10:33:19.095Z,15.03
2022-11-29T10:35:47.430Z,14.43
2022-11-29T10:38:30.237Z,11.53
2022-11-29T10:40:42.479Z,19.47
2022-11-29T10:43:10.831Z,13.97
2022-11-29T10:45:44.389Z,14.37
2022-11-29T10:48:12.637Z,13.52
2022-11-29T10:50:40.976Z,12.83
2022-11-29T10:53:08.552Z,11.90
2022-11-29T10:55:47.636Z,11.57
2022-11-29T10:58:24.845Z,12.60
2022-11-29T11:00:57.335Z,15.87
2022-11-29T11:03:27.768Z,12.80
2022-11-29T11:06:01.592Z,12.40
2022-11-29T11:08:29.884Z,9.87
2022-11-29T11:11:01.722Z,12.90
2022-11-29T11:13:25.760Z,12.53
2022-11-29T11:15:56.213Z,9.83
2022-11-29T11:18:23.758Z,11.77
2022-11-29T11:20:54.047Z,6.40
2022-11-29T11:23:24.280Z,12.90
2022-11-29T11:25:51.815Z,11.70
2022-11-29T11:28:22.367Z,7.30
2022-11-29T11:30:53.065Z,9.10
2022-11-29T11:33:32.299Z,9.23
2022-11-29T11:36:06.026Z,9.40
2022-11-29T11:38:33.553Z,8.40
2022-11-29T11:41:22.789Z,7.13
2022-11-29T11:43:50.322Z,7.67
2022-11-29T11:46:18.243Z,6.07
2022-11-29T11:48:46.338Z,5.40
2022-11-29T11:51:19.318Z,7.37
2022-11-29T11:53:46.842Z,8.80
2022-11-29T11:56:14.457Z,7.53
2022-11-29T11:58:44.788Z,10.00
2022-11-29T12:01:15.001Z,11.50
2022-11-29T12:03:51.153Z,7.97
2022-11-29T12:06:55.106Z,7.13
2022-11-29T12:09:28.728Z,9.27
2022-11-29T12:12:20.391Z,9.18
2022-11-29T12:14:59.583Z,10.57
2022-11-29T12:17:39.004Z,8.33
2022-11-29T12:20:24.657Z,11.90
2022-11-29T12:23:06.970Z,8.93
2022-11-29T12:25:34.539Z,9.17
2022-11-29T12:28:02.071Z,12.07
2022-11-29T12:30:29.605Z,11.43
2022-11-29T12:33:06.957Z,7.67
2022-11-29T12:35:40.163Z,10.30
2022-11-29T12:38:19.472Z,10.27
2022-11-29T12:41:05.094Z,8.17
2022-11-29T12:43:35.868Z,8.07
2022-11-29T12:46:24.158Z,10.00
2022-11-29T12:48:54.765Z,9.00
2022-11-29T12:51:28.010Z,9.43
2022-11-29T12:54:16.353Z,12.47
2022-11-29T12:56:44.659Z,8.27
2022-11-29T12:59:12.191Z,10.90
2022-11-29T13:01:45.953Z,7.13
2022-11-29T13:04:19.783Z,9.47
2022-11-29T13:06:56.635Z,7.60
2022-11-29T13:09:42.329Z,9.47
2022-11-29T13:12:19.270Z,9.03
2022-11-29T13:15:14.088Z,11.20
2022-11-29T13:17:47.856Z,15.43
2022-11-29T13:20:36.431Z,10.17
2022-11-29T13:23:10.426Z,6.43
2022-11-29T13:25:37.960Z,9.57
2022-11-29T13:28:06.272Z,6.63
2022-11-29T13:30:37.214Z,10.93
2022-11-29T13:33:13.682Z,8.60
2022-11-29T13:35:59.070Z,13.43
2022-11-29T13:38:32.064Z,7.47
2022-11-29T13:41:05.546Z,9.83
2022-11-29T13:43:36.085Z,7.78
2022-11-29T13:46:15.906Z,9.67
2022-11-29T13:48:55.366Z,10.40
2022-11-29T13:51:28.663Z,8.20
2022-11-29T13:53:56.199Z,9.80
2022-11-29T13:56:44.446Z,8.90
2022-11-29T13:59:23.609Z,14.30
2022-11-29T14:01:51.280Z,8.13
2022-11-29T14:04:25.432Z,11.25
2022-11-29T14:07:01.917Z,11.20
2022-11-29T14:09:33.185Z,10.10
2022-11-29T14:12:12.721Z,6.87
2022-11-29T14:14:55.529Z,8.83
2022-11-29T14:17:53.695Z,11.60
2022-11-29T14:20:23.895Z,6.07
2022-11-29T14:23:06.485Z,8.73
2022-11-29T14:25:53.383Z,9.37
2022-11-29T14:28:23.830Z,10.37
2022-11-29T14:30:51.371Z,9.63
2022-11-29T14:33:43.039Z,7.23
2022-11-29T14:36:19.387Z,8.87
2022-11-29T14:38:56.205Z,8.43
2022-11-29T14:41:38.588Z,5.53
2022-11-29T14:44:06.173Z,6.80
2022-11-29T14:46:33.736Z,9.43
2022-11-29T14:49:01.999Z,11.13
2022-11-29T14:51:29.604Z,8.97
2022-11-29T14:54:12.207Z,9.13
2022-11-29T14:56:39.797Z,12.37
2022-11-29T14:59:42.049Z,11.07
2022-11-29T15:02:30.891Z,12.57
2022-11-29T15:04:58.386Z,13.20
2022-11-29T15:07:29.411Z,6.37
2022-11-29T15:09:57.523Z,12.20
2022-11-29T15:12:25.047Z,11.30
2022-11-29T15:15:11.594Z,10.37
2022-11-29T15:17:51.447Z,9.20
2022-11-29T15:20:37.187Z,8.90
2022-11-29T15:23:05.481Z,14.90
2022-11-29T15:25:33.017Z,13.37
2022-11-29T15:28:04.478Z,9.07
2022-11-29T15:30:35.735Z,7.90
2022-11-29T15:33:05.921Z,14.80
2022-11-29T15:35:33.485Z,17.60
2022-11-29T15:38:01.027Z,13.38
2022-11-29T15:40:28.552Z,12.60
2022-11-29T15:42:57.131Z,12.83
2022-11-29T15:45:27.480Z,15.00
2022-11-29T15:47:54.918Z,9.97
2022-11-29T15:50:25.476Z,12.73
2022-11-29T15:52:53.009Z,9.20
2022-11-29T15:55:20.533Z,10.03
2022-11-29T15:57:48.886Z,12.77
2022-11-29T16:00:16.443Z,11.03
2022-11-29T16:02:47.096Z,11.73
2022-11-29T16:05:21.110Z,10.87
2022-11-29T16:07:49.453Z,13.60
2022-11-29T16:10:30.469Z,10.13
2022-11-29T16:12:56.544Z,14.53
2022-11-29T16:15:30.028Z,16.53
2022-11-29T16:17:59.499Z,13.57
2022-11-29T16:20:27.144Z,10.83
2022-11-29T16:23:10.263Z,11.30
2022-11-29T16:25:50.482Z,13.27
2022-11-29T16:28:18.359Z,10.10
2022-11-29T16:30:45.886Z,20.57
2022-11-29T16:33:16.147Z,15.33
2022-11-29T16:35:44.381Z,15.20
2022-11-29T16:38:20.649Z,15.27
2022-11-29T16:41:06.372Z,11.17
2022-11-29T16:43:46.528Z,15.80
2022-11-29T16:46:22.502Z,20.80
2022-11-29T16:48:50.802Z,18.05
2022-11-29T16:51:27.799Z,13.53
2022-11-29T16:53:55.403Z,17.77
2022-11-29T16:56:25.635Z,22.00
2022-11-29T16:59:24.699Z,20.05
2022-11-29T17:01:24.721Z,16.43
2022-11-29T17:03:52.248Z,14.77
2022-11-29T17:06:23.790Z,14.63
2022-11-29T17:08:51.317Z,17.93
2022-11-29T17:11:18.840Z,12.40
2022-11-29T17:13:46.426Z,19.07
2022-11-29T17:16:16.944Z,20.93
2022-11-29T17:18:45.175Z,15.30
2022-11-29T17:21:27.440Z,13.43
2022-11-29T17:23:54.964Z,14.87
2022-11-29T17:26:22.499Z,13.07
2022-11-29T17:28:50.347Z,17.73
2022-11-29T17:31:18.666Z,20.23
2022-11-29T17:33:46.172Z,21.13
2022-11-29T17:36:14.814Z,17.47
2022-11-29T17:38:42.300Z,20.87
2022-11-29T17:41:09.834Z,19.43
2022-11-29T17:43:38.374Z,16.90
2022-11-29T17:46:17.941Z,13.93
2022-11-29T17:48:45.475Z,11.00
2022-11-29T17:51:35.970Z,13.27
2022-11-29T17:53:41.296Z,9.97
2022-11-29T17:56:09.616Z,12.40
2022-11-29T17:58:37.140Z,9.50
2022-11-29T18:01:10.622Z,14.97
2022-11-29T18:03:38.168Z,18.97
2022-11-29T18:06:08.390Z,14.70
2022-11-29T18:08:38.701Z,17.77
2022-11-29T18:11:09.582Z,20.83
2022-11-29T18:13:37.108Z,35.45
2022-11-29T18:16:04.633Z,30.87
2022-11-29T18:18:34.521Z,33.50
2022-11-29T18:21:02.057Z,28.50
2022-11-29T18:23:30.348Z,26.30
2022-11-29T18:25:57.923Z,29.67
2022-11-29T18:28:25.447Z,23.10
2022-11-29T18:30:53.815Z,21.77
2022-11-29T18:33:21.337Z,19.70
2022-11-29T18:35:48.858Z,22.73
2022-11-29T18:38:16.793Z,26.57
2022-11-29T18:40:43.947Z,22.50
2022-11-29T18:43:11.492Z,22.73
2022-11-29T18:45:39.070Z,25.37
2022-11-29T18:48:06.571Z,20.57
2022-11-29T18:50:34.098Z,27.47
2022-11-29T18:53:02.390Z,33.90
2022-11-29T18:55:30.357Z,22.27
2022-11-29T18:57:57.882Z,21.13
2022-11-29T19:00:25.427Z,22.47
2022-11-29T19:02:53.010Z,26.37
2022-11-29T19:05:20.526Z,27.27
2022-11-29T19:07:48.173Z,24.10
2022-11-29T19:10:15.644Z,23.67
2022-11-29T19:12:43.171Z,18.43
2022-11-29T19:15:10.782Z,22.27
2022-11-29T19:17:42.958Z,33.07
2022-11-29T19:20:06.898Z,29.13
2022-11-29T19:22:34.421Z,35.70
2022-11-29T19:25:02.005Z,31.70
2022-11-29T19:27:29.539Z,25.17
2022-11-29T19:29:57.079Z,34.37
2022-11-29T19:32:24.639Z,41.73
2022-11-29T19:34:52.978Z,48.80
2022-11-29T19:37:20.496Z,40.37
2022-11-29T19:39:48.328Z,41.80
2022-11-29T19:42:15.594Z,38.43
2022-11-29T19:45:15.346Z,32.30
2022-11-29T19:47:11.473Z,30.00
2022-11-29T19:49:38.996Z,34.00
2022-11-29T19:52:07.309Z,30.00
2022-11-29T19:54:34.884Z,30.37
2022-11-29T19:57:02.409Z,35.30
2022-11-29T19:59:29.933Z,26.50
2022-11-29T20:01:57.535Z,29.27
2022-11-29T20:04:25.042Z,28.73
2022-11-29T20:06:52.566Z,32.70
2022-11-29T20:09:20.134Z,40.83
2022-11-29T20:11:47.665Z,41.33
2022-11-29T20:14:15.190Z,43.57
2022-11-29T20:16:43.546Z,36.53
2022-11-29T20:19:11.081Z,29.37
2022-11-29T20:21:38.613Z,25.77
2022-11-29T20:24:06.297Z,31.77
2022-11-29T20:26:33.829Z,27.17
2022-11-29T20:29:01.347Z,17.80
2022-11-29T20:31:28.975Z,25.40
2022-11-29T20:33:59.362Z,31.12
2022-11-29T20:36:49.375Z,37.57
2022-11-29T20:39:22.390Z,66.30
2022-11-29T20:42:14.594Z,101.90
2022-11-29T20:44:45.018Z,96.35
2022-11-29T20:47:15.231Z,84.97
2022-11-29T20:49:42.869Z,75.07
2022-11-29T20:52:31.500Z,51.60
2022-11-29T20:54:59.064Z,39.80
2022-11-29T20:57:26.589Z,40.63
2022-11-29T20:59:54.153Z,50.10
2022-11-29T21:02:22.456Z,35.67
2022-11-29T21:04:49.991Z,53.03
2022-11-29T21:07:17.547Z,45.07
2022-11-29T21:09:45.090Z,32.03
2022-11-29T21:12:12.811Z,32.43
2022-11-29T21:14:40.356Z,29.03
2022-11-29T21:17:08.177Z,27.83
2022-11-29T21:19:35.701Z,26.67
2022-11-29T21:22:12.718Z,27.30
2022-11-29T21:24:58.261Z,25.00
2022-11-29T21:27:29.232Z,23.97
2022-11-29T21:29:56.769Z,24.40
2022-11-29T21:32:25.060Z,28.60
2022-11-29T21:34:52.628Z,28.53
2022-11-29T21:37:20.168Z,22.93
2022-11-29T21:39:48.483Z,17.97
2022-11-29T21:42:16.321Z,55.30
2022-11-29T21:44:43.973Z,43.33
2022-11-29T21:47:12.150Z,32.77
2022-11-29T21:49:40.047Z,21.03
2022-11-29T21:52:07.577Z,20.60
2022-11-29T21:54:35.886Z,16.87
2022-11-29T21:57:04.037Z,22.60
2022-11-29T21:59:31.567Z,30.07
2022-11-29T22:01:59.262Z,20.73
2022-11-29T22:04:26.950Z,22.67
2022-11-29T22:06:54.475Z,38.00
2022-11-29T22:09:22.001Z,23.23
2022-11-29T22:11:49.565Z,20.03
2022-11-29T22:14:20.584Z,22.50
2022-11-29T22:16:54.159Z,28.87
2022-11-29T22:19:21.749Z,52.73
2022-11-29T22:21:49.254Z,42.60
2022-11-29T22:24:16.770Z,71.37
2022-11-29T22:26:45.495Z,39.70
2022-11-29T22:29:13.045Z,33.60
2022-11-29T22:31:41.411Z,36.03
2022-11-29T22:34:09.153Z,18.73
2022-11-29T22:36:36.677Z,49.00
2022-11-29T22:39:04.212Z,34.20
2022-11-29T22:41:32.102Z,42.47
2022-11-29T22:43:59.648Z,50.30
2022-11-29T22:46:27.260Z,69.13
2022-11-29T22:48:54.757Z,65.00
2022-11-29T22:51:25.422Z,65.80
2022-11-29T22:53:52.955Z,53.47
2022-11-29T22:56:20.521Z,54.77
2022-11-29T22:58:48.054Z,55.93
2022-11-29T23:01:16.408Z,93.70
2022-11-29T23:03:43.911Z,90.90
2022-11-29T23:06:11.436Z,97.80
2022-11-29T23:08:39.729Z,49.90
2022-11-29T23:11:07.294Z,45.70
2022-11-29T23:13:34.821Z,49.83
2022-11-29T23:16:02.406Z,42.33
2022-11-29T23:18:29.918Z,58.40
2022-11-29T23:21:09.454Z,49.95
2022-11-29T23:23:36.993Z,27.37
2022-11-29T23:26:04.536Z,60.40
2022-11-29T23:28:32.060Z,49.37
2022-11-29T23:31:02.164Z,44.43
2022-11-29T23:33:29.710Z,45.20
2022-11-29T23:36:00.147Z,61.23
2022-11-29T23:38:28.295Z,58.77
2022-11-29T23:40:55.808Z,36.70
2022-11-29T23:43:24.111Z,42.33
2022-11-29T23:45:51.731Z,41.10
2022-11-29T23:48:19.210Z,63.30
2022-11-29T23:50:46.744Z,56.57
2022-11-29T23:53:14.309Z,56.20
2022-11-29T23:55:42.605Z,71.67
2022-11-29T23:58:10.136Z,82.27
